Time;durP1;ratioP1;P1;durP2;ratioP2;P2;SDS_P1;SDS_P2;PMS_P1;PMS_P2;Temp;Humidity;BMP_temperature;BMP_pressure;BME280_temperature;BME280_humidity;BME280_pressure;Samples;Min_cycle;Max_cycle;Signal;HPM_P1;HPM_P2
2024/01/21 00:02:14;;;;;;;21.05;18.98;;;-0.90;99.90;;;;;;6123243;23;20010;-74
2024/01/21 00:04:40;;;;;;;19.52;17.58;;;-0.90;99.90;;;;;;6122701;23;20351;-74
2024/01/21 00:07:06;;;;;;;14.10;8.45;;;-0.90;99.90;;;;;;6123188;23;20018;-74
2024/01/21 00:09:31;;;;;;;20.92;18.88;;;-0.90;99.90;;;;;;6123094;23;20017;-74
2024/01/21 00:11:57;;;;;;;14.27;8.18;;;-0.90;99.90;;;;;;6123206;23;20386;-74
2024/01/21 00:14:22;;;;;;;11.93;6.03;;;-0.90;99.90;;;;;;6122419;23;20119;-74
2024/01/21 00:16:48;;;;;;;19.67;17.58;;;-0.90;99.90;;;;;;6122570;23;20018;-74
2024/01/21 00:19:14;;;;;;;12.93;7.22;;;-0.90;99.90;;;;;;6122825;23;20454;-74
2024/01/21 00:21:39;;;;;;;13.48;6.95;;;-0.90;99.90;;;;;;6122855;23;20068;-74
2024/01/21 00:24:05;;;;;;;19.58;17.70;;;-1.00;99.90;;;;;;6121834;23;20010;-74
2024/01/21 00:26:31;;;;;;;11.85;7.00;;;-0.90;99.90;;;;;;6123536;23;20451;-74
2024/01/21 00:29:00;;;;;;;13.25;7.15;;;-0.90;99.90;;;;;;6122537;23;20012;-74
2024/01/21 00:31:26;;;;;;;10.23;6.43;;;-0.90;99.90;;;;;;6122832;23;20037;-74
2024/01/21 00:33:52;;;;;;;12.48;6.68;;;-0.90;99.90;;;;;;6122520;23;20010;-74
2024/01/21 00:36:17;;;;;;;11.10;7.40;;;-0.90;99.90;;;;;;6123009;23;20482;-74
2024/01/21 00:38:43;;;;;;;12.77;7.90;;;-0.90;99.90;;;;;;6122723;23;20010;-74
2024/01/21 00:41:15;;;;;;;15.20;7.50;;;-0.80;99.90;;;;;;6122869;23;20596;-74
2024/01/21 00:43:41;;;;;;;;;;;-0.80;99.90;;;;;;6122586;23;20014;-74
2024/01/21 00:46:07;;;;;;;12.18;6.72;;;-0.80;99.90;;;;;;6122726;23;19920;-74
2024/01/21 00:48:34;;;;;;;18.83;16.83;;;-0.80;99.90;;;;;;6122962;23;20018;-74
2024/01/21 00:51:00;;;;;;;15.50;7.05;;;-0.70;99.90;;;;;;6122746;23;20375;-74
2024/01/21 00:53:26;;;;;;;13.20;6.90;;;-0.70;99.90;;;;;;6121897;23;20018;-74
2024/01/21 00:55:51;;;;;;;11.30;6.97;;;-0.70;99.90;;;;;;6122887;23;20024;-74
2024/01/21 00:58:17;;;;;;;17.20;15.50;;;-0.70;99.90;;;;;;6122959;23;20018;-74
2024/01/21 01:00:43;;;;;;;12.45;7.18;;;-0.60;99.90;;;;;;6098361;23;20021;-74
2024/01/21 01:03:08;;;;;;;12.65;5.93;;;-0.60;99.90;;;;;;6122409;23;20398;-74
2024/01/21 01:05:34;;;;;;;10.30;6.05;;;-0.70;99.90;;;;;;6122671;23;20006;-74
2024/01/21 01:07:59;;;;;;;12.35;6.50;;;-0.60;99.90;;;;;;6122591;23;20440;-74
2024/01/21 01:10:25;;;;;;;15.98;14.43;;;-0.60;99.90;;;;;;6122767;23;20018;-74
2024/01/21 01:12:51;;;;;;;16.40;14.73;;;-0.60;99.90;;;;;;6122532;23;20017;-74
2024/01/21 01:15:16;;;;;;;10.93;6.60;;;-0.50;99.90;;;;;;6122444;23;20014;-74
2024/01/21 01:17:42;;;;;;;9.70;5.97;;;-0.50;99.90;;;;;;6122354;23;20045;-74
2024/01/21 01:20:08;;;;;;;16.00;14.40;;;-0.50;99.90;;;;;;6122538;23;20112;-74
2024/01/21 01:22:35;;;;;;;10.18;6.22;;;-0.40;99.90;;;;;;6122112;23;20010;-74
2024/01/21 01:25:00;;;;;;;13.20;6.40;;;-0.50;99.90;;;;;;6122327;23;20435;-74
2024/01/21 01:27:26;;;;;;;10.38;5.95;;;-0.50;99.90;;;;;;6122538;23;20037;-74
2024/01/21 01:29:52;;;;;;;11.98;6.30;;;-0.40;99.90;;;;;;6123636;23;20014;-74
2024/01/21 01:32:17;;;;;;;15.30;13.70;;;-0.40;99.90;;;;;;6124711;23;20018;-74
2024/01/21 01:34:43;;;;;;;10.05;5.70;;;-0.40;99.90;;;;;;6124471;23;20257;-74
2024/01/21 01:37:09;;;;;;;10.57;5.85;;;-0.40;99.90;;;;;;6123826;23;20456;-74
2024/01/21 01:39:35;;;;;;;9.82;5.55;;;-0.40;99.90;;;;;;6124125;23;20069;-74
2024/01/21 01:42:01;;;;;;;9.57;5.60;;;-0.40;99.90;;;;;;6100120;23;20013;-74
2024/01/21 01:44:26;;;;;;;15.13;13.63;;;-0.40;99.90;;;;;;6124040;23;20012;-73
2024/01/21 01:46:52;;;;;;;9.98;5.75;;;-0.40;99.90;;;;;;6124705;23;20370;-73
2024/01/21 01:49:19;;;;;;;14.10;12.73;;;-0.30;99.90;;;;;;6124174;23;20024;-73
2024/01/21 01:51:45;;;;;;;13.77;12.38;;;-0.30;99.90;;;;;;6124275;23;20020;-73
2024/01/21 01:54:11;;;;;;;12.25;6.07;;;-0.30;99.90;;;;;;6123294;23;20017;-73
2024/01/21 01:56:38;;;;;;;11.77;6.43;;;-0.30;99.90;;;;;;6123860;23;20443;-73
2024/01/21 01:59:08;;;;;;;9.60;5.35;;;-0.30;99.90;;;;;;6124573;23;20017;-73
2024/01/21 02:01:36;;;;;;;12.93;11.63;;;-0.40;99.90;;;;;;6099946;23;20315;-74
2024/01/21 02:04:02;;;;;;;12.38;6.07;;;-0.40;99.90;;;;;;6123186;23;20324;-73
2024/01/21 02:06:28;;;;;;;11.27;5.80;;;-0.30;99.90;;;;;;6124118;23;20029;-73
2024/01/21 02:08:54;;;;;;;8.32;4.85;;;-0.40;99.90;;;;;;6123650;23;20010;-73
2024/01/21 02:11:20;;;;;;;13.35;11.95;;;-0.40;99.90;;;;;;6123876;23;20010;-73
2024/01/21 02:13:45;;;;;;;12.77;11.48;;;-0.30;99.90;;;;;;6123777;23;20010;-73
2024/01/21 02:16:11;;;;;;;9.70;4.95;;;-0.30;99.90;;;;;;6123979;23;20542;-73
2024/01/21 02:18:38;;;;;;;7.60;4.72;;;-0.30;99.90;;;;;;6124253;23;20085;-73
2024/01/21 02:21:03;;;;;;;8.27;4.43;;;-0.30;99.90;;;;;;6124410;23;20089;-73
2024/01/21 02:23:30;;;;;;;9.15;5.07;;;-0.40;99.90;;;;;;6098700;23;20504;-74
2024/01/21 02:25:56;;;;;;;12.68;10.45;;;-0.30;99.90;;;;;;6123280;23;20014;-73
2024/01/21 02:28:22;;;;;;;10.90;4.90;;;-0.40;99.90;;;;;;6123426;23;20018;-73
2024/01/21 02:30:47;;;;;;;7.20;4.05;;;-0.30;99.90;;;;;;6123786;23;20050;-73
2024/01/21 02:33:13;;;;;;;8.65;4.85;;;-0.30;99.90;;;;;;6123802;23;20439;-73
2024/01/21 02:35:39;;;;;;;7.97;4.13;;;-0.30;99.90;;;;;;6123926;23;20017;-73
2024/01/21 02:38:04;;;;;;;7.10;4.30;;;-0.30;99.90;;;;;;6123124;23;20073;-73
2024/01/21 02:40:30;;;;;;;11.48;10.13;;;-0.30;99.90;;;;;;6123474;23;20320;-73
2024/01/21 02:42:56;;;;;;;10.65;9.55;;;-0.20;99.90;;;;;;6123388;23;20010;-73
2024/01/21 02:45:22;;;;;;;9.02;4.60;;;-0.20;99.90;;;;;;6123977;23;20017;-73
2024/01/21 02:47:47;;;;;;;9.60;4.70;;;-0.20;99.90;;;;;;6123717;23;20088;-73
2024/01/21 02:50:13;;;;;;;9.68;4.03;;;-0.20;99.90;;;;;;6123652;23;20350;-73
2024/01/21 02:52:38;;;;;;;8.35;3.92;;;-0.20;99.90;;;;;;6123959;23;20032;-73
2024/01/21 02:55:04;;;;;;;6.35;3.33;;;-0.20;99.90;;;;;;6123755;23;20060;-73
2024/01/21 02:57:30;;;;;;;9.35;4.18;;;-0.20;99.90;;;;;;6123567;23;20517;-73
2024/01/21 02:59:56;;;;;;;8.48;4.07;;;-0.20;99.90;;;;;;6123963;23;20022;-73
2024/01/21 03:02:22;;;;;;;9.60;8.60;;;-0.20;99.90;;;;;;6123023;23;20017;-73
2024/01/21 03:04:47;;;;;;;7.32;3.97;;;-0.10;99.90;;;;;;6123683;23;20343;-73
2024/01/21 03:07:13;;;;;;;8.82;7.90;;;-0.10;99.90;;;;;;6123457;23;20018;-73
2024/01/21 03:09:39;;;;;;;6.47;3.75;;;-0.10;99.90;;;;;;6123436;23;20118;-73
2024/01/21 03:12:05;;;;;;;9.07;8.13;;;-0.10;99.90;;;;;;6123347;23;20093;-73
2024/01/21 03:14:30;;;;;;;5.53;3.47;;;0.00;99.90;;;;;;6122965;23;20089;-73
2024/01/21 03:16:57;;;;;;;8.10;3.25;;;-0.10;99.90;;;;;;6123172;23;20336;-74
2024/01/21 03:19:22;;;;;;;8.02;3.67;;;-0.10;99.90;;;;;;6123408;23;20080;-74
2024/01/21 03:21:48;;;;;;;8.65;7.75;;;0.00;99.90;;;;;;6122921;23;20042;-73
2024/01/21 03:24:13;;;;;;;6.93;3.55;;;0.00;99.90;;;;;;6121586;23;20354;-73
2024/01/21 03:26:39;;;;;;;7.80;6.78;;;0.00;99.90;;;;;;6121082;23;20018;-73
2024/01/21 03:29:05;;;;;;;5.22;2.88;;;0.10;99.90;;;;;;6123067;23;20013;-73
2024/01/21 03:31:30;;;;;;;8.23;6.60;;;0.10;99.90;;;;;;6123273;23;20402;-73
2024/01/21 03:33:56;;;;;;;5.68;2.92;;;0.10;99.90;;;;;;6122696;23;20014;-73
2024/01/21 03:36:21;;;;;;;7.50;6.70;;;0.00;99.90;;;;;;6123069;23;20014;-73
2024/01/21 03:38:50;;;;;;;3.80;2.42;;;0.10;99.90;;;;;;6122216;23;20021;-73
2024/01/21 03:41:17;;;;;;;5.05;3.00;;;0.00;99.90;;;;;;6123506;23;20021;-73
2024/01/21 03:43:43;;;;;;;7.93;6.43;;;0.10;99.90;;;;;;6123332;23;20010;-73
2024/01/21 03:46:08;;;;;;;6.85;5.68;;;0.10;99.90;;;;;;6123509;23;20442;-73
2024/01/21 03:48:34;;;;;;;7.78;3.33;;;0.10;99.90;;;;;;6123039;23;20050;-73
2024/01/21 03:50:59;;;;;;;4.18;2.58;;;0.00;99.90;;;;;;6123351;23;20021;-73
2024/01/21 03:53:25;;;;;;;4.78;2.30;;;0.00;99.90;;;;;;6121809;23;20097;-73
2024/01/21 03:55:50;;;;;;;4.88;2.90;;;0.00;99.90;;;;;;6122510;23;20045;-73
2024/01/21 03:58:16;;;;;;;5.30;2.30;;;0.10;99.90;;;;;;6123017;23;20021;-73
2024/01/21 04:00:42;;;;;;;3.80;2.20;;;0.10;99.90;;;;;;6122637;23;20005;-73
2024/01/21 04:03:07;;;;;;;8.10;5.68;;;0.10;99.90;;;;;;6122016;23;20190;-73
2024/01/21 04:05:33;;;;;;;6.30;2.90;;;0.20;99.90;;;;;;6122889;23;20384;-73
2024/01/21 04:07:59;;;;;;;6.00;5.30;;;0.10;99.90;;;;;;6123133;23;20062;-73
2024/01/21 04:10:25;;;;;;;6.43;5.30;;;0.10;99.90;;;;;;6123043;23;20020;-73
2024/01/21 04:12:50;;;;;;;6.10;5.47;;;0.10;99.90;;;;;;6122569;23;20014;-73
2024/01/21 04:15:16;;;;;;;5.50;3.03;;;0.10;99.90;;;;;;6122866;23;20024;-73
2024/01/21 04:17:42;;;;;;;4.18;2.15;;;0.00;99.90;;;;;;6123087;23;20101;-73
2024/01/21 04:20:08;;;;;;;7.32;5.45;;;0.00;99.90;;;;;;6122848;23;20387;-73
2024/01/21 04:22:34;;;;;;;4.57;2.20;;;0.10;99.90;;;;;;6122574;23;20187;-73
2024/01/21 04:25:00;;;;;;;4.63;2.13;;;0.10;99.90;;;;;;6122808;23;20028;-73
2024/01/21 04:27:25;;;;;;;5.68;4.88;;;0.00;99.90;;;;;;6123023;23;20141;-73
2024/01/21 04:29:51;;;;;;;4.07;2.40;;;0.10;99.90;;;;;;6122908;23;20014;-73
2024/01/21 04:32:17;;;;;;;5.35;2.50;;;0.00;99.90;;;;;;6098556;23;20015;-74
2024/01/21 04:34:43;;;;;;;3.58;1.92;;;0.00;99.90;;;;;;6122374;23;20013;-73
2024/01/21 04:37:08;;;;;;;4.20;2.13;;;0.00;99.90;;;;;;6122245;23;20537;-73
2024/01/21 04:39:34;;;;;;;7.35;5.30;;;0.00;99.90;;;;;;6122556;23;20018;-73
2024/01/21 04:41:59;;;;;;;6.22;5.53;;;0.00;99.90;;;;;;6122810;23;20010;-73
2024/01/21 04:44:25;;;;;;;5.68;2.60;;;-0.10;99.90;;;;;;6122771;23;20010;-73
2024/01/21 04:46:51;;;;;;;4.57;2.60;;;-0.10;99.90;;;;;;6123192;23;20513;-73
2024/01/21 04:49:16;;;;;;;6.90;5.50;;;-0.10;99.90;;;;;;6122781;23;20354;-73
2024/01/21 04:51:43;;;;;;;8.00;2.72;;;-0.10;99.90;;;;;;6122291;23;20045;-73
2024/01/21 04:54:09;;;;;;;5.03;2.45;;;-0.10;99.90;;;;;;6122643;23;20014;-73
2024/01/21 04:56:36;;;;;;;7.30;5.80;;;-0.20;99.90;;;;;;6123029;23;20235;-73
2024/01/21 04:59:02;;;;;;;6.82;6.07;;;-0.20;99.90;;;;;;6122719;23;20010;-73
2024/01/21 05:01:28;;;;;;;5.10;2.63;;;-0.20;99.90;;;;;;6122691;23;20010;-73
2024/01/21 05:03:53;;;;;;;7.53;6.20;;;-0.30;99.90;;;;;;6123319;23;20332;-73
2024/01/21 05:06:20;;;;;;;5.38;2.90;;;-0.40;99.90;;;;;;6124525;23;20017;-73
2024/01/21 05:08:45;;;;;;;4.40;2.50;;;-0.40;99.90;;;;;;6124934;23;20029;-73
2024/01/21 05:11:14;;;;;;;6.00;3.10;;;-0.40;99.90;;;;;;6124642;23;20018;-73
2024/01/21 05:13:39;;;;;;;6.60;5.57;;;-0.50;99.90;;;;;;6124265;23;20017;-73
2024/01/21 05:16:05;;;;;;;6.55;5.80;;;-0.40;99.90;;;;;;6124273;23;20065;-73
2024/01/21 05:18:31;;;;;;;5.22;2.85;;;-0.50;99.90;;;;;;6124177;23;20018;-73
2024/01/21 05:20:56;;;;;;;4.53;2.58;;;-0.50;99.90;;;;;;6124580;23;20010;-73
2024/01/21 05:23:22;;;;;;;4.60;2.13;;;-0.50;99.90;;;;;;6124530;23;20032;-73
2024/01/21 05:25:50;;;;;;;6.65;2.45;;;-0.40;99.90;;;;;;6124246;23;20013;-73
2024/01/21 05:28:16;;;;;;;7.28;6.00;;;-0.40;99.90;;;;;;6124476;23;20014;-73
2024/01/21 05:30:42;;;;;;;5.45;2.88;;;-0.30;99.90;;;;;;6125103;23;20052;-73
2024/01/21 05:33:07;;;;;;;5.93;2.50;;;-0.20;99.90;;;;;;6124548;23;20018;-73
2024/01/21 05:35:33;;;;;;;8.18;6.18;;;-0.10;99.90;;;;;;6124547;23;20042;-73
2024/01/21 05:37:58;;;;;;;7.10;5.90;;;0.00;99.90;;;;;;6124507;23;20096;-73
2024/01/21 05:40:25;;;;;;;5.22;2.80;;;0.10;99.90;;;;;;6124308;23;20010;-73
2024/01/21 05:42:51;;;;;;;7.75;6.70;;;0.10;99.90;;;;;;6123831;23;20099;-73
2024/01/21 05:45:16;;;;;;;5.45;2.72;;;0.10;99.90;;;;;;6123589;23;20077;-73
2024/01/21 05:47:42;;;;;;;5.68;3.05;;;0.20;99.90;;;;;;6124505;23;20025;-73
2024/01/21 05:50:08;;;;;;;6.00;3.08;;;0.30;99.90;;;;;;6124485;23;20401;-73
2024/01/21 05:52:35;;;;;;;7.70;6.60;;;0.40;99.90;;;;;;6124123;23;20014;-73
2024/01/21 05:55:00;;;;;;;5.85;2.88;;;0.40;99.90;;;;;;6124128;23;20018;-73
2024/01/21 05:57:26;;;;;;;5.25;3.45;;;0.50;99.90;;;;;;6123856;23;20041;-73
2024/01/21 05:59:52;;;;;;;8.10;6.82;;;0.50;99.90;;;;;;6124392;23;20343;-73
2024/01/21 06:02:18;;;;;;;7.05;3.50;;;0.60;99.90;;;;;;6123688;23;20478;-74
2024/01/21 06:04:43;;;;;;;4.60;2.70;;;0.60;99.90;;;;;;6123403;23;20391;-74
2024/01/21 06:07:09;;;;;;;9.35;7.55;;;0.60;99.90;;;;;;6123970;23;20068;-73
2024/01/21 06:09:35;;;;;;;7.15;3.63;;;0.70;99.90;;;;;;6123973;23;20014;-73
2024/01/21 06:12:00;;;;;;;7.88;7.07;;;0.60;99.90;;;;;;6124007;23;20049;-74
2024/01/21 06:14:26;;;;;;;7.32;3.45;;;0.70;99.90;;;;;;6123260;23;20354;-74
2024/01/21 06:16:52;;;;;;;9.00;3.80;;;0.60;99.90;;;;;;6123851;23;20470;-73
2024/01/21 06:19:18;;;;;;;5.63;2.92;;;0.60;99.90;;;;;;6123697;23;20010;-73
2024/01/21 06:21:44;;;;;;;9.50;8.20;;;0.60;99.90;;;;;;6123503;23;20343;-74
2024/01/21 06:24:13;;;;;;;8.63;7.38;;;0.70;99.90;;;;;;6124054;23;20458;-74
2024/01/21 06:26:40;;;;;;;9.07;8.18;;;0.70;99.90;;;;;;6124365;23;20017;-73
2024/01/21 06:29:07;;;;;;;6.70;3.50;;;0.70;99.90;;;;;;6123507;23;20418;-74
2024/01/21 06:31:33;;;;;;;5.78;3.80;;;0.70;99.90;;;;;;6124309;23;20006;-73
2024/01/21 06:33:59;;;;;;;9.50;8.15;;;0.70;99.90;;;;;;6124009;23;20390;-74
2024/01/21 06:36:25;;;;;;;8.63;7.35;;;0.70;99.90;;;;;;6123346;23;20014;-74
2024/01/21 06:38:51;;;;;;;6.75;3.92;;;0.70;99.90;;;;;;6123592;23;20050;-73
2024/01/21 06:41:17;;;;;;;6.65;3.75;;;0.70;99.90;;;;;;6123736;23;20014;-73
2024/01/21 06:43:42;;;;;;;7.38;3.03;;;0.70;99.90;;;;;;6123804;23;20021;-74
2024/01/21 06:46:09;;;;;;;9.18;3.30;;;0.70;99.90;;;;;;6123543;23;20013;-73
2024/01/21 06:48:35;;;;;;;8.80;7.90;;;0.70;99.90;;;;;;6123299;23;20069;-73
2024/01/21 06:51:04;;;;;;;8.95;7.97;;;0.70;99.90;;;;;;6123462;23;20013;-73
2024/01/21 06:53:30;;;;;;;8.55;7.75;;;0.70;99.90;;;;;;6123913;23;20025;-73
2024/01/21 06:55:56;;;;;;;6.00;3.65;;;0.70;99.90;;;;;;6123826;23;20462;-73
2024/01/21 06:58:21;;;;;;;6.68;3.83;;;0.70;99.90;;;;;;6123428;23;20010;-74
2024/01/21 07:00:51;;;;;;;7.28;3.65;;;0.80;99.90;;;;;;6122095;23;20010;-74
2024/01/21 07:03:18;;;;;;;8.80;7.90;;;0.80;99.90;;;;;;6123809;23;20041;-73
2024/01/21 07:05:44;;;;;;;6.38;3.47;;;0.80;99.90;;;;;;6123467;23;20014;-73
2024/01/21 07:08:09;;;;;;;9.15;8.15;;;0.80;99.90;;;;;;6123650;23;20010;-74
2024/01/21 07:10:35;;;;;;;7.65;4.13;;;0.80;99.90;;;;;;6123654;23;20386;-73
2024/01/21 07:13:00;;;;;;;9.45;8.45;;;0.80;99.90;;;;;;6122989;23;20013;-73
2024/01/21 07:15:26;;;;;;;6.40;3.47;;;0.90;99.90;;;;;;6123117;23;20013;-73
2024/01/21 07:17:52;;;;;;;9.25;8.35;;;0.90;99.90;;;;;;6123268;23;20018;-73
2024/01/21 07:20:17;;;;;;;9.40;8.50;;;0.90;99.90;;;;;;6123663;23;20346;-73
2024/01/21 07:22:43;;;;;;;7.07;4.18;;;0.90;99.90;;;;;;6123107;23;20065;-74
2024/01/21 07:25:09;;;;;;;7.93;4.03;;;0.90;99.90;;;;;;6123348;23;20025;-73
2024/01/21 07:27:35;;;;;;;8.82;7.93;;;0.90;99.90;;;;;;6123088;23;20017;-74
2024/01/21 07:30:00;;;;;;;10.50;8.40;;;0.90;99.90;;;;;;6122464;23;20442;-75
2024/01/21 07:32:27;;;;;;;6.10;3.30;;;0.90;99.90;;;;;;6123687;23;20021;-74
2024/01/21 07:34:54;;;;;;;6.32;3.65;;;0.90;99.90;;;;;;6122484;23;20022;-75
2024/01/21 07:37:19;;;;;;;8.57;7.68;;;0.90;99.90;;;;;;6098893;23;20077;-74
2024/01/21 07:39:45;;;;;;;6.30;3.55;;;0.90;99.90;;;;;;6122428;23;20013;-70
2024/01/21 07:42:11;;;;;;;9.20;8.30;;;0.90;99.90;;;;;;6123437;23;20014;-76
2024/01/21 07:44:40;;;;;;;9.35;7.80;;;0.90;99.90;;;;;;6123159;23;20016;-76
2024/01/21 07:47:06;;;;;;;9.07;8.13;;;0.90;99.90;;;;;;6123526;23;20020;-74
2024/01/21 07:49:31;;;;;;;9.63;8.57;;;1.00;99.90;;;;;;6123178;23;20046;-74
2024/01/21 07:51:57;;;;;;;9.35;8.35;;;1.00;99.90;;;;;;6122997;23;20065;-74
2024/01/21 07:54:23;;;;;;;6.95;4.18;;;1.00;99.90;;;;;;6123197;23;20113;-74
2024/01/21 07:56:49;;;;;;;6.50;3.60;;;1.00;99.90;;;;;;6122871;23;20135;-75
2024/01/21 07:59:15;;;;;;;6.85;3.33;;;1.00;99.90;;;;;;6123103;23;20014;-75
2024/01/21 08:01:41;;;;;;;7.72;3.70;;;1.00;99.90;;;;;;6123434;23;20010;-75
2024/01/21 08:04:07;;;;;;;9.70;8.70;;;1.10;99.90;;;;;;6122618;23;20463;-75
2024/01/21 08:06:32;;;;;;;8.65;7.85;;;1.10;99.90;;;;;;6122977;23;20010;-74
2024/01/21 08:08:58;;;;;;;9.68;8.70;;;1.20;99.90;;;;;;6122910;23;20020;-75
2024/01/21 08:11:24;;;;;;;7.22;4.63;;;1.20;99.90;;;;;;6123259;23;20313;-75
2024/01/21 08:13:49;;;;;;;9.52;8.55;;;1.30;99.90;;;;;;6122450;23;20410;-75
2024/01/21 08:16:15;;;;;;;9.55;8.45;;;1.30;99.90;;;;;;6122860;23;20014;-74
2024/01/21 08:18:44;;;;;;;9.40;4.07;;;1.30;99.90;;;;;;6121757;23;20041;-75
2024/01/21 08:21:09;;;;;;;9.52;8.45;;;1.40;99.90;;;;;;6122538;23;20359;-75
2024/01/21 08:23:35;;;;;;;9.27;8.38;;;1.40;99.90;;;;;;6122533;23;20021;-75
2024/01/21 08:26:04;;;;;;;9.95;8.55;;;1.50;99.90;;;;;;6122942;23;20084;-75
2024/01/21 08:32:31;;;;;;;9.80;8.73;;;1.60;99.90;;;;;;6063347;23;20081;-75
2024/01/21 08:34:59;;;;;;;9.40;8.43;;;1.60;99.90;;;;;;6115941;23;20049;-74
2024/01/21 08:37:51;;;;;;;10.43;9.18;;;1.60;99.90;;;;;;6100754;23;20025;-74
2024/01/21 08:40:16;;;;;;;7.30;3.88;;;1.60;99.90;;;;;;6122998;23;20017;-74
2024/01/21 08:42:42;;;;;;;9.73;8.73;;;1.60;99.90;;;;;;6122947;23;20439;-74
2024/01/21 08:45:08;;;;;;;10.00;8.90;;;1.60;99.90;;;;;;6121861;23;20093;-74
2024/01/21 08:47:34;;;;;;;6.72;3.70;;;1.60;99.90;;;;;;6122735;23;20057;-74
2024/01/21 08:50:00;;;;;;;9.38;8.48;;;1.60;99.90;;;;;;6122433;23;20021;-74
2024/01/21 08:52:26;;;;;;;10.30;9.30;;;1.70;99.90;;;;;;6122752;23;20018;-74
2024/01/21 08:54:52;;;;;;;10.13;9.13;;;1.80;99.90;;;;;;6121863;23;20010;-74
2024/01/21 08:57:18;;;;;;;9.80;8.80;;;1.90;99.90;;;;;;6123064;23;20092;-74
2024/01/21 08:59:46;;;;;;;10.30;9.13;;;2.00;99.90;;;;;;6120684;23;20019;-75
2024/01/21 09:02:49;;;;;;;9.75;8.75;;;2.10;99.90;;;;;;6122234;23;20021;-76
2024/01/21 09:09:51;;;;;;;;;;;;;;;;;;;;;
2024/01/21 09:13:20;;;;;;;10.50;9.50;;;2.20;99.90;;;;;;6100780;23;20013;-76
2024/01/21 09:15:58;;;;;;;9.93;8.95;;;2.20;99.90;;;;;;6124319;23;20028;-76
2024/01/21 09:22:00;;;;;;;9.73;8.73;;;2.30;99.90;;;;;;6124612;23;20101;-76
2024/01/21 09:24:26;;;;;;;10.27;9.05;;;2.20;99.90;;;;;;6111489;23;20472;-78
2024/01/21 09:26:51;;;;;;;11.48;10.07;;;2.20;99.90;;;;;;6153570;23;20088;-78
2024/01/21 09:29:17;;;;;;;9.40;8.50;;;2.20;99.90;;;;;;6129545;23;20009;-78
2024/01/21 09:31:42;;;;;;;9.10;8.18;;;2.20;99.90;;;;;;6129016;23;20013;-78
2024/01/21 09:34:08;;;;;;;9.93;8.93;;;2.30;99.90;;;;;;6140740;23;20466;-78
2024/01/21 09:36:34;;;;;;;10.88;9.77;;;2.40;99.90;;;;;;6123484;23;20350;-78
2024/01/21 09:39:02;;;;;;;10.80;9.00;;;2.40;99.90;;;;;;6124187;23;20014;-79
2024/01/21 09:41:47;;;;;;;10.20;9.15;;;2.50;99.90;;;;;;6123248;23;20020;-79
2024/01/21 09:44:13;;;;;;;9.68;8.75;;;2.60;99.90;;;;;;6123680;23;20017;-79
2024/01/21 09:46:39;;;;;;;10.48;9.43;;;2.60;99.90;;;;;;6123333;23;20006;-79
2024/01/21 09:49:09;;;;;;;10.40;9.40;;;2.60;99.90;;;;;;6098878;23;20022;-78
2024/01/21 09:51:37;;;;;;;10.65;9.55;;;2.60;99.90;;;;;;6125259;23;20028;-78
2024/01/21 09:54:05;;;;;;;9.63;8.43;;;2.70;99.90;;;;;;6100715;23;20010;-78
2024/01/21 09:56:30;;;;;;;10.68;9.57;;;2.80;99.90;;;;;;6125492;23;20061;-78
2024/01/21 09:58:57;;;;;;;10.30;9.25;;;2.90;99.90;;;;;;6100280;23;20077;-78
2024/01/21 10:01:23;;;;;;;10.52;9.43;;;2.90;99.90;;;;;;6124897;23;20014;-79
2024/01/21 10:03:49;;;;;;;10.60;9.60;;;2.90;99.90;;;;;;6124708;23;20010;-79
2024/01/21 10:06:16;;;;;;;10.50;9.40;;;2.90;99.90;;;;;;6125488;23;20466;-79
2024/01/21 10:08:42;;;;;;;10.23;9.23;;;3.00;99.90;;;;;;6124614;23;20018;-78
2024/01/21 10:11:08;;;;;;;11.05;9.90;;;3.00;99.90;;;;;;6125279;23;20049;-78
2024/01/21 10:13:36;;;;;;;10.48;9.38;;;3.10;99.90;;;;;;6125469;23;20014;-79
2024/01/21 10:16:02;;;;;;;11.35;10.02;;;3.10;99.90;;;;;;6124514;23;20066;-78
2024/01/21 10:18:28;;;;;;;10.63;9.60;;;3.10;99.90;;;;;;6124915;23;20014;-79
2024/01/21 10:20:56;;;;;;;10.48;9.38;;;3.10;99.90;;;;;;6125383;23;20010;-79
2024/01/21 10:23:22;;;;;;;10.07;9.07;;;3.20;99.90;;;;;;6124666;23;20509;-79
2024/01/21 10:25:48;;;;;;;10.65;9.63;;;3.20;99.90;;;;;;6100510;23;20009;-79
2024/01/21 10:28:14;;;;;;;10.15;9.20;;;3.20;99.90;;;;;;6125854;23;20052;-78
2024/01/21 10:30:42;;;;;;;10.68;9.55;;;3.20;99.90;;;;;;6125514;23;20018;-79
2024/01/21 10:33:08;;;;;;;10.18;9.15;;;3.20;99.90;;;;;;6100402;23;20056;-78
2024/01/21 10:35:34;;;;;;;11.38;10.18;;;3.30;99.90;;;;;;6125049;23;20053;-78
2024/01/21 10:38:02;;;;;;;10.52;9.52;;;3.30;99.90;;;;;;6124273;23;20018;-79
2024/01/21 10:40:31;;;;;;;10.30;9.30;;;3.30;99.90;;;;;;6123492;23;20017;-79
2024/01/21 10:42:59;;;;;;;10.40;9.40;;;3.30;99.90;;;;;;6123523;23;20251;-79
2024/01/21 10:45:26;;;;;;;10.38;9.27;;;3.30;99.90;;;;;;6124460;23;20014;-78
2024/01/21 10:47:53;;;;;;;10.65;9.55;;;3.30;99.90;;;;;;6124442;23;20018;-78
2024/01/21 10:50:23;;;;;;;10.70;9.57;;;3.30;99.90;;;;;;6124168;23;20010;-78
2024/01/21 10:52:50;;;;;;;12.32;9.43;;;3.30;99.90;;;;;;6124215;23;20489;-78
2024/01/21 10:55:16;;;;;;;11.20;10.10;;;3.30;99.90;;;;;;6124014;23;20010;-78
2024/01/21 10:57:47;;;;;;;10.98;9.82;;;3.40;99.90;;;;;;6124137;23;20021;-78
2024/01/21 11:00:16;;;;;;;10.70;9.60;;;3.40;99.90;;;;;;6124367;23;20014;-78
2024/01/21 11:03:01;;;;;;;10.98;9.88;;;3.40;99.90;;;;;;6124130;23;20345;-78
2024/01/21 11:05:27;;;;;;;10.05;9.05;;;3.30;99.90;;;;;;6123885;23;20010;-78
2024/01/21 11:08:03;;;;;;;10.80;9.70;;;3.40;99.90;;;;;;6124517;23;20017;-79
2024/01/21 11:10:29;;;;;;;10.75;9.65;;;3.40;99.90;;;;;;6124199;23;20010;-78
2024/01/21 11:12:58;;;;;;;11.15;10.05;;;3.30;99.90;;;;;;6099619;23;20076;-79
2024/01/21 11:15:27;;;;;;;10.77;9.77;;;3.30;99.90;;;;;;6099583;23;20013;-78
2024/01/21 11:18:07;;;;;;;12.07;10.63;;;3.30;99.90;;;;;;6099858;23;20446;-79
2024/01/21 11:20:33;;;;;;;11.43;10.32;;;3.30;99.90;;;;;;6124613;23;20084;-78
2024/01/21 11:23:01;;;;;;;11.15;10.15;;;3.30;99.90;;;;;;6123857;23;20041;-78
2024/01/21 11:25:34;;;;;;;12.20;11.10;;;3.30;99.90;;;;;;6125038;23;20374;-78
2024/01/21 11:28:23;;;;;;;11.00;9.90;;;3.30;99.90;;;;;;6100198;23;20346;-77
2024/01/21 11:30:53;;;;;;;11.73;10.52;;;3.30;99.90;;;;;;6123904;23;20288;-79
2024/01/21 11:33:22;;;;;;;12.00;10.90;;;3.30;99.90;;;;;;6099520;23;20084;-76
2024/01/21 11:35:48;;;;;;;12.82;10.80;;;3.40;99.90;;;;;;6124489;23;20065;-75
2024/01/21 11:38:14;;;;;;;11.82;10.63;;;3.40;99.90;;;;;;6123822;23;20018;-76
2024/01/21 11:40:40;;;;;;;12.18;10.98;;;3.40;99.90;;;;;;6123430;23;20068;-76
2024/01/21 11:43:05;;;;;;;11.95;10.80;;;3.40;99.90;;;;;;6123386;23;20014;-76
2024/01/21 11:45:31;;;;;;;13.38;11.98;;;3.40;99.90;;;;;;6123345;23;20033;-75
2024/01/21 11:47:59;;;;;;;12.45;11.25;;;3.40;99.90;;;;;;6123707;23;20018;-77
2024/01/21 11:50:25;;;;;;;12.23;11.07;;;3.40;99.90;;;;;;6099086;23;20438;-77
2024/01/21 11:52:51;;;;;;;12.75;11.45;;;3.40;99.90;;;;;;6098835;23;20013;-76
2024/01/21 11:55:21;;;;;;;13.07;11.77;;;3.50;99.90;;;;;;6098262;23;20085;-76
2024/01/21 11:57:46;;;;;;;12.10;10.90;;;3.40;99.90;;;;;;6098649;23;20068;-76
2024/01/21 12:00:13;;;;;;;12.55;11.38;;;3.40;99.90;;;;;;6121944;23;20447;-76
2024/01/21 12:02:39;;;;;;;13.27;11.90;;;3.50;99.90;;;;;;6123148;23;20006;-76
2024/01/21 12:05:05;;;;;;;13.32;11.93;;;3.50;99.90;;;;;;6122710;23;20398;-76
2024/01/21 12:07:31;;;;;;;13.13;11.82;;;3.50;99.90;;;;;;6123166;23;20375;-76
2024/01/21 12:09:58;;;;;;;12.75;11.55;;;3.50;99.90;;;;;;6098481;23;20358;-75
2024/01/21 12:12:26;;;;;;;12.93;11.63;;;3.60;99.90;;;;;;6122855;23;20391;-75
2024/01/21 12:14:51;;;;;;;14.50;13.15;;;3.60;99.90;;;;;;6122945;23;20412;-76
2024/01/21 12:17:17;;;;;;;13.23;12.00;;;3.60;99.90;;;;;;6122935;23;20050;-75
2024/01/21 12:19:42;;;;;;;14.70;11.60;;;3.60;99.90;;;;;;6098471;23;20443;-75
2024/01/21 12:22:08;;;;;;;14.27;12.80;;;3.70;99.90;;;;;;6123272;23;20048;-75
2024/01/21 12:24:39;;;;;;;13.32;12.02;;;3.70;99.90;;;;;;6122735;23;20013;-76
2024/01/21 12:27:05;;;;;;;14.13;12.73;;;3.70;99.90;;;;;;6122910;23;20459;-76
2024/01/21 12:29:37;;;;;;;13.68;12.30;;;3.70;99.90;;;;;;6098769;23;20030;-75
2024/01/21 12:32:05;;;;;;;14.25;12.85;;;3.80;99.90;;;;;;6122995;23;20010;-76
2024/01/21 12:34:31;;;;;;;14.45;12.85;;;3.80;99.90;;;;;;6122502;23;20010;-76
2024/01/21 12:36:57;;;;;;;15.05;13.45;;;3.80;99.90;;;;;;6122661;23;20014;-76
2024/01/21 12:39:23;;;;;;;15.13;12.88;;;3.80;99.90;;;;;;6122810;23;20017;-76
2024/01/21 12:41:49;;;;;;;14.13;12.68;;;3.90;99.90;;;;;;6123069;23;20173;-76
2024/01/21 12:44:14;;;;;;;14.25;12.73;;;3.90;99.90;;;;;;6122724;23;20466;-77
2024/01/21 12:46:42;;;;;;;13.73;12.30;;;3.90;99.90;;;;;;6098500;23;20475;-76
2024/01/21 12:49:08;;;;;;;14.93;13.30;;;4.00;99.90;;;;;;6123440;23;20065;-76
2024/01/21 12:51:34;;;;;;;14.40;12.68;;;4.00;99.90;;;;;;6123089;23;20013;-76
2024/01/21 12:54:00;;;;;;;14.50;13.00;;;4.10;99.90;;;;;;6122720;23;20018;-76
2024/01/21 12:56:27;;;;;;;14.45;12.90;;;4.10;99.90;;;;;;6123024;23;20037;-76
2024/01/21 12:58:52;;;;;;;14.68;13.27;;;4.10;99.90;;;;;;6123246;23;20342;-76